Forside
METAR-TAF:

METAR-TAF

Lufthavne :

Lewis University Airport

Romeoville, Illinois, USA

Breddekreds: 41-36-30N, længdekreds: 088-05-39W, højde: 205 m

Aktuelle vejr

Denne rapport blev lavet for 12 minutter siden, kl. 12:15 UTC
Vind 6 kt fra østsydøst
Temperatur 0°C
Fugtighed 100%
Tryk 1024 hPa
Sigt: 4.8 km
Brudte skyer i en højde af 400 ft
Brudte skyer i en højde af 1600 ft
Overskyet i en højde af 4900 ft
ukendt

METAR: KLOT 241215Z AUTO 12006KT 3SM UP BKN004 BKN016 OVC049 00/00 A3023 RMK AO2 T00010001

Tid: 06:27 (12:27 UTC)


TAF: fraværende

Vejrobservationer og prognoser fra mere end 4000 lufthavne (METAR og TAF).

De gule og røde prikker repræsenterer de meteorologiske stationer.

Flyt musen over at se navnet på stationen.

Så klik over at se vejr observationer og prognoser.

At skifte det kort: Klik på de grønne knapper med et sort kors for at zoome ind; på den grønne knap med en bindestreg for at zoome ud; eller på de grønne pile for tilstødende kort.


METAR-TAF: